Terminal Aerodrome Forecast
Issued by NWS

Home | Current Version | Previous Version | Text Only | Print | Product List | Glossary On
Versions: 1 2 3 4 5 6 7 8 9 10 11 12 13
163
FTAK31 PAJN 311121
TAFAWG
TAF
PAWG 311121Z 3112/0112 14005KT P6SM VCSH SCT040 OVC070
     FM311800 13010KT P6SM -RA BKN035 OVC060
     FM010600 11008KT P6SM -RA BKN025 OVC040
      AMD LTD TO CLD VIS AND WIND 3112/3115=

USA.gov is the U.S. government's official web portal to all federal, state and local government web resources and services.